Terminal Aerodrome Forecast
Issued by NWS Kansas City/Pleasant Hill, MO

Home | Current Version | Previous Version | Text Only | Print | Product List | Glossary On
Versions: 1 2 3 4 5 6 7 8 9 10 11 12 13 14 15 16 17 18
000
FTUS43 KEAX 202320
TAFMCI
TAF
KMCI 202320Z 2100/2124 VRB05KT P6SM VCSH SCT015 BKN035
     FM210300 32005KT P6SM SCT015 OVC025
     FM210500 35005KT P6SM OVC015
     FM210800 33004KT P6SM OVC008
     FM211500 30007KT P6SM OVC015
     FM211800 30007KT P6SM BKN025=

USA.gov is the U.S. government's official web portal to all federal, state and local government web resources and services.